Time;durP1;ratioP1;P1;durP2;ratioP2;P2;SDS_P1;SDS_P2;PMS_P1;PMS_P2;Temp;Humidity;BMP_temperature;BMP_pressure;BME280_temperature;BME280_humidity;BME280_pressure;Samples;Min_cycle;Max_cycle;Signal;HPM_P1;HPM_P2
2023/01/18 00:01:10;;;;;;;16.30;8.50;;;;;;;2.00;93.66;95778.20;107030;1275;138988;-71
2023/01/18 00:03:38;;;;;;;11.40;6.90;;;;;;;1.96;93.72;95780.31;106737;1275;138727;-71
2023/01/18 00:06:06;;;;;;;13.00;7.20;;;;;;;1.91;93.64;95772.71;106886;1275;22673;-72
2023/01/18 00:08:35;;;;;;;11.20;6.20;;;;;;;1.87;93.78;95770.42;107173;1282;138415;-72
2023/01/18 00:11:20;;;;;;;10.90;5.40;;;;;;;1.84;93.84;95773.24;106601;1281;138894;-71
2023/01/18 00:13:47;;;;;;;10.10;5.30;;;;;;;1.80;93.77;95773.20;107092;1277;139137;-71
2023/01/18 00:16:17;;;;;;;9.10;5.10;;;;;;;1.75;93.91;95774.45;106571;1281;139138;-71
2023/01/18 00:18:51;;;;;;;10.40;5.10;;;;;;;1.70;93.91;95780.38;106945;1259;137996;-72
2023/01/18 00:21:18;;;;;;;9.40;5.40;;;;;;;1.65;93.93;95781.50;106596;1281;138181;-71
2023/01/18 00:23:45;;;;;;;9.80;6.40;;;;;;;1.59;94.00;95779.95;106957;1280;22540;-71
2023/01/18 00:26:12;;;;;;;9.70;5.70;;;;;;;1.55;94.10;95780.92;106640;1274;137997;-71
2023/01/18 00:28:40;;;;;;;9.90;6.00;;;;;;;1.49;93.97;95777.23;106602;1281;138021;-71
2023/01/18 00:31:16;;;;;;;11.40;6.60;;;;;;;1.43;93.87;95772.93;106641;1262;137987;-71
2023/01/18 00:33:44;;;;;;;10.80;6.30;;;;;;;1.34;93.65;95771.60;107044;1272;138142;-71
2023/01/18 00:36:12;;;;;;;11.90;7.40;;;;;;;1.25;93.48;95770.98;106804;1280;22711;-71
2023/01/18 00:38:39;;;;;;;11.70;6.90;;;;;;;1.19;93.37;95773.36;107238;1280;139108;-71
2023/01/18 00:41:06;;;;;;;16.20;7.90;;;;;;;1.12;93.35;95773.79;106627;1273;138046;-71
2023/01/18 00:43:39;;;;;;;13.80;8.40;;;;;;;1.06;93.35;95774.94;106608;1281;138652;-71
2023/01/18 00:46:15;;;;;;;15.30;7.50;;;;;;;1.01;93.61;95772.96;106585;1275;138211;-71
2023/01/18 00:48:43;;;;;;;13.70;7.80;;;;;;;0.96;93.63;95773.34;106766;1282;138294;-71
2023/01/18 00:51:13;;;;;;;13.60;8.90;;;;;;;0.90;93.44;95773.33;106561;1264;138148;-71
2023/01/18 00:53:42;;;;;;;13.80;8.20;;;;;;;0.85;93.43;95770.36;106754;1281;22543;-71
2023/01/18 00:56:10;;;;;;;;;;;;;;;0.78;93.59;95775.73;106679;1281;138363;-71
2023/01/18 00:58:37;;;;;;;14.20;7.60;;;;;;;0.71;93.80;95776.41;106550;1281;124446;-70
2023/01/18 01:01:05;;;;;;;14.30;8.00;;;;;;;0.66;93.78;95779.19;106554;1259;138969;-70
2023/01/18 01:06:42;;;;;;;16.50;8.90;;;;;;;0.61;94.07;95781.64;106752;1275;138177;-70
2023/01/18 01:06:45;;;;;;;10.80;7.60;;;;;;;0.57;94.17;95773.66;106655;1281;24213;-70
2023/01/18 01:09:22;;;;;;;11.00;7.80;;;;;;;0.53;94.33;95754.34;106424;1281;138119;-70
2023/01/18 01:28:27;;;;;;;12.40;8.20;;;;;;;0.30;95.47;95739.26;106438;1281;138215;-71
2023/01/18 01:30:59;;;;;;;11.80;7.70;;;;;;;0.29;95.52;95731.91;106542;1263;139520;-70
2023/01/18 01:33:30;;;;;;;11.20;6.80;;;;;;;0.28;95.64;95719.27;106676;1257;138250;-70
2023/01/18 01:35:58;;;;;;;11.80;7.70;;;;;;;0.27;95.81;95704.41;106637;1280;22552;-70
2023/01/18 01:38:25;;;;;;;8.50;5.90;;;;;;;0.25;95.94;95685.66;106701;1281;138435;-71
2023/01/18 01:41:04;;;;;;;9.10;5.50;;;;;;;0.24;96.04;95683.39;106531;1263;138390;-70
2023/01/18 01:43:50;;;;;;;9.20;5.40;;;;;;;0.23;96.14;95685.36;106534;1281;137880;-71
2023/01/18 01:46:31;;;;;;;9.90;5.70;;;;;;;0.22;96.38;95678.83;106538;1281;137843;-70
2023/01/18 01:49:00;;;;;;;7.70;5.10;;;;;;;0.21;96.57;95683.78;106487;1281;138412;-70
2023/01/18 01:51:27;;;;;;;;;;;;;;;0.20;96.47;95687.73;106490;1262;138058;-70
2023/01/18 01:54:01;;;;;;;6.00;3.80;;;;;;;0.19;96.61;95689.23;106642;1281;24230;-71
2023/01/18 01:56:29;;;;;;;5.50;3.80;;;;;;;0.19;96.76;95699.38;106778;1281;139245;-70
2023/01/18 01:58:59;;;;;;;5.50;3.70;;;;;;;0.18;96.97;95704.66;106613;1281;138678;-70
2023/01/18 02:01:27;;;;;;;5.30;3.70;;;;;;;0.18;97.09;95701.20;106781;1262;138433;-70
2023/01/18 02:03:59;;;;;;;7.10;4.30;;;;;;;0.19;97.12;95695.64;107653;1281;138335;-70
2023/01/18 02:06:31;;;;;;;6.50;4.20;;;;;;;0.18;97.22;95689.80;106620;1281;22529;-70
2023/01/18 02:09:05;;;;;;;5.30;3.50;;;;;;;0.20;97.24;95683.52;106576;1281;138357;-71
2023/01/18 02:11:32;;;;;;;7.50;4.50;;;;;;;0.20;97.15;95673.66;106592;1263;22569;-70
2023/01/18 02:14:06;;;;;;;5.60;3.80;;;;;;;0.21;97.16;95666.27;106512;1281;138577;-70
2023/01/18 02:16:53;;;;;;;7.20;3.90;;;;;;;0.20;97.29;95652.04;106531;1281;138968;-70
2023/01/18 02:19:48;;;;;;;7.00;3.80;;;;;;;0.20;97.23;95633.73;107008;1275;138617;-70
2023/01/18 02:22:46;;;;;;;6.10;4.30;;;;;;;0.19;97.43;95618.36;106449;1274;137782;-70
2023/01/18 02:25:51;;;;;;;4.00;3.60;;;;;;;0.17;97.45;95600.61;106482;1276;138920;-70
2023/01/18 02:28:30;;;;;;;7.60;4.40;;;;;;;0.14;97.31;95600.26;106501;1281;138024;-70
2023/01/18 02:31:16;;;;;;;7.90;4.80;;;;;;;0.12;97.69;95602.95;107264;1281;139285;-71
2023/01/18 02:33:52;;;;;;;5.30;4.00;;;;;;;0.08;97.82;95618.81;106515;1282;138040;-70
2023/01/18 02:36:33;;;;;;;7.40;4.60;;;;;;;0.07;97.88;95611.41;106721;1282;22575;-70
2023/01/18 02:39:08;;;;;;;7.90;5.30;;;;;;;0.07;98.00;95611.41;106697;1282;22563;-70
2023/01/18 02:47:28;;;;;;;5.70;4.10;;;;;;;0.08;98.33;95607.63;106492;1281;137779;-70
2023/01/18 02:49:56;;;;;;;6.40;4.10;;;;;;;0.09;98.32;95614.55;106854;1260;137828;-70
2023/01/18 02:52:40;;;;;;;6.00;4.50;;;;;;;0.09;98.35;95603.09;106489;1260;137878;-70
2023/01/18 02:55:20;;;;;;;5.10;3.70;;;;;;;0.10;98.39;95585.88;106572;1275;138521;-70
2023/01/18 02:57:47;;;;;;;5.20;3.70;;;;;;;0.11;98.45;95593.59;106648;1281;137997;-70
2023/01/18 03:00:17;;;;;;;4.20;3.30;;;;;;;0.11;98.52;95595.31;106742;1282;25456;-70
2023/01/18 03:02:48;;;;;;;6.80;3.60;;;;;;;0.13;98.48;95604.59;106644;1258;138864;-70
2023/01/18 03:05:16;;;;;;;4.70;3.10;;;;;;;0.13;98.56;95622.94;106537;1281;138891;-70
2023/01/18 03:07:54;;;;;;;5.20;3.60;;;;;;;0.13;98.36;95637.23;106680;1282;139478;-69
2023/01/18 03:10:27;;;;;;;4.80;3.50;;;;;;;0.15;98.69;95652.23;107039;1275;138088;-69
2023/01/18 03:13:14;;;;;;;4.30;2.70;;;;;;;0.16;98.69;95663.27;106495;1282;138908;-69
2023/01/18 03:15:47;;;;;;;3.10;2.80;;;;;;;0.17;98.65;95663.08;106489;1282;138147;-70
2023/01/18 03:18:35;;;;;;;3.80;3.00;;;;;;;0.18;98.74;95657.31;106580;1281;25560;-69
2023/01/18 03:21:06;;;;;;;3.50;3.10;;;;;;;0.20;98.59;95654.98;106582;1281;25294;-69
2023/01/18 03:23:38;;;;;;;4.40;3.40;;;;;;;0.22;98.85;95665.16;107458;1263;22527;-69
2023/01/18 03:26:18;;;;;;;3.60;2.90;;;;;;;0.23;98.68;95656.99;106753;1278;137688;-70
2023/01/18 03:34:54;;;;;;;5.20;3.10;;;;;;;0.24;98.55;95639.23;106471;1262;137857;-70
2023/01/18 03:37:27;;;;;;;;;;;;;;;0.24;98.57;95647.11;106522;1281;138559;-70
2023/01/18 03:40:04;;;;;;;5.40;3.30;;;;;;;0.26;98.77;95643.65;106886;1277;124296;-70
2023/01/18 03:42:45;;;;;;;3.30;2.90;;;;;;;0.27;98.88;95633.45;106624;1281;22539;-70
2023/01/18 03:45:40;;;;;;;4.10;3.10;;;;;;;0.29;98.89;95613.34;106410;1263;137840;-70
2023/01/18 03:48:08;;;;;;;3.50;2.90;;;;;;;0.30;98.86;95603.81;106975;1269;22951;-70
2023/01/18 03:50:51;;;;;;;4.60;3.30;;;;;;;0.29;98.67;95615.48;106474;1282;137759;-70
2023/01/18 03:54:03;;;;;;;4.70;3.50;;;;;;;0.29;98.61;95634.52;106524;1281;138343;-70
2023/01/18 03:56:53;;;;;;;6.50;4.10;;;;;;;0.29;98.63;95624.85;106028;1270;138154;-70
2023/01/18 03:59:20;;;;;;;5.40;3.80;;;;;;;0.31;98.89;95607.95;106136;1286;138538;-70
2023/01/18 04:01:48;;;;;;;6.30;4.40;;;;;;;0.33;98.94;95595.50;106007;1290;138226;-70
2023/01/18 04:04:14;;;;;;;4.90;4.10;;;;;;;0.34;98.91;95589.20;106014;1290;138768;-70
2023/01/18 04:06:41;;;;;;;5.10;3.90;;;;;;;0.35;98.77;95592.53;106060;1268;139599;-70
2023/01/18 04:09:10;;;;;;;4.50;3.60;;;;;;;0.36;98.72;95588.15;106163;1289;26642;-70
2023/01/18 04:11:37;;;;;;;5.80;4.10;;;;;;;0.35;98.74;95582.15;106413;1281;22561;-70
2023/01/18 04:14:04;;;;;;;4.80;4.10;;;;;;;0.35;98.81;95583.86;106126;1289;137852;-70
2023/01/18 04:16:32;;;;;;;7.40;4.10;;;;;;;0.36;98.80;95583.54;106105;1289;139793;-70
2023/01/18 04:18:58;;;;;;;6.40;3.50;;;;;;;0.38;98.89;95579.39;106101;1288;138087;-70
2023/01/18 04:21:25;;;;;;;8.70;5.90;;;;;;;0.37;98.76;95568.04;106135;1281;138174;-70
2023/01/18 04:23:52;;;;;;;8.90;5.90;;;;;;;0.39;98.95;95571.33;106694;1284;22587;-70
2023/01/18 04:26:19;;;;;;;8.80;6.30;;;;;;;0.42;98.98;95575.15;106290;1268;138150;-70
2023/01/18 04:28:46;;;;;;;7.30;5.10;;;;;;;0.46;99.00;95572.77;107008;1280;138471;-70
2023/01/18 04:31:13;;;;;;;6.80;5.00;;;;;;;0.50;99.18;95565.92;106012;1288;138021;-70
2023/01/18 04:33:39;;;;;;;6.30;4.90;;;;;;;0.56;99.03;95560.94;106583;1281;138243;-70
2023/01/18 04:36:07;;;;;;;6.70;4.80;;;;;;;0.59;98.85;95561.29;107039;1263;24557;-70
2023/01/18 04:38:34;;;;;;;6.10;4.80;;;;;;;0.62;98.52;95559.65;106609;1275;137747;-70
2023/01/18 04:41:04;;;;;;;5.10;4.10;;;;;;;0.66;98.73;95556.96;106594;1282;137971;-70
2023/01/18 04:43:31;;;;;;;5.40;3.90;;;;;;;0.72;98.72;95559.01;106472;1281;212732;-70
2023/01/18 04:45:58;;;;;;;6.40;4.20;;;;;;;0.78;98.91;95556.59;106597;1263;139206;-70
2023/01/18 04:48:25;;;;;;;4.50;3.90;;;;;;;0.83;98.90;95564.46;106745;1282;25242;-70
2023/01/18 04:50:52;;;;;;;5.80;4.50;;;;;;;0.90;99.02;95569.71;106588;1282;138318;-70
2023/01/18 04:53:20;;;;;;;7.40;4.90;;;;;;;0.92;98.33;95570.69;106683;1281;137819;-70
2023/01/18 04:55:47;;;;;;;5.90;4.50;;;;;;;0.92;98.18;95569.36;106853;1273;137830;-70
2023/01/18 04:58:14;;;;;;;5.70;4.30;;;;;;;0.94;98.04;95570.50;106724;1282;138403;-70
2023/01/18 05:00:41;;;;;;;6.30;4.50;;;;;;;0.96;98.30;95580.59;106660;1281;140839;-70
2023/01/18 05:03:10;;;;;;;6.50;5.00;;;;;;;0.99;98.33;95576.36;106750;1281;22588;-70
2023/01/18 05:05:37;;;;;;;5.40;4.80;;;;;;;1.00;97.75;95575.09;106726;1277;22563;-70
2023/01/18 05:08:04;;;;;;;7.60;5.20;;;;;;;1.03;98.00;95570.41;106640;1278;138233;-70
2023/01/18 05:10:32;;;;;;;6.80;4.90;;;;;;;1.04;97.82;95569.45;107263;1281;137814;-70
2023/01/18 05:12:59;;;;;;;6.20;5.10;;;;;;;1.06;97.77;95568.34;106615;1278;140604;-70
2023/01/18 05:15:26;;;;;;;7.40;5.50;;;;;;;1.09;97.68;95573.46;106637;1275;138006;-70
2023/01/18 05:17:53;;;;;;;7.80;4.70;;;;;;;1.09;97.49;95577.85;106763;1260;24183;-70
2023/01/18 05:20:19;;;;;;;7.40;5.50;;;;;;;1.08;97.13;95584.48;107762;1282;138364;-70
2023/01/18 05:22:46;;;;;;;8.40;6.20;;;;;;;1.08;97.09;95602.38;106636;1282;138425;-70
2023/01/18 05:25:13;;;;;;;7.90;5.40;;;;;;;1.09;97.41;95608.23;106655;1276;138519;-70
2023/01/18 05:27:40;;;;;;;9.30;6.30;;;;;;;1.11;97.51;95609.27;106702;1263;137960;-70
2023/01/18 05:30:09;;;;;;;8.50;6.30;;;;;;;1.11;96.94;95608.85;107097;1280;22985;-70
2023/01/18 05:32:36;;;;;;;8.90;6.30;;;;;;;1.10;96.83;95604.81;107004;1280;137681;-70
2023/01/18 05:35:04;;;;;;;9.90;6.90;;;;;;;1.10;96.84;95600.00;106643;1274;138003;-70
2023/01/18 05:37:31;;;;;;;9.00;6.90;;;;;;;1.10;96.70;95592.76;106669;1263;138839;-70
2023/01/18 05:39:58;;;;;;;10.40;7.40;;;;;;;1.09;96.65;95592.65;106644;1280;137896;-70
2023/01/18 05:42:25;;;;;;;11.50;7.30;;;;;;;1.09;96.75;95598.75;106760;1281;22537;-70
2023/01/18 05:44:52;;;;;;;11.30;7.40;;;;;;;1.09;96.57;95605.94;106556;1281;137839;-70
2023/01/18 05:47:18;;;;;;;11.00;7.40;;;;;;;1.09;96.56;95609.10;106641;1262;138170;-70
2023/01/18 05:49:45;;;;;;;12.60;7.80;;;;;;;1.11;96.77;95608.25;106592;1281;138679;-70
2023/01/18 05:52:12;;;;;;;12.20;7.70;;;;;;;1.12;96.78;95604.73;106945;1275;138000;-70
2023/01/18 05:54:39;;;;;;;13.40;8.30;;;;;;;1.11;96.54;95606.42;106541;1281;139935;-70
2023/01/18 05:57:06;;;;;;;14.00;8.30;;;;;;;1.10;96.24;95598.88;107554;1263;25488;-70
2023/01/18 05:59:34;;;;;;;15.50;8.70;;;;;;;1.09;96.69;95586.91;106759;1275;137711;-70
2023/01/18 06:02:02;;;;;;;14.30;8.90;;;;;;;1.09;96.52;95586.21;106817;1278;138029;-70
2023/01/18 06:04:29;;;;;;;14.50;9.80;;;;;;;1.03;95.90;95587.56;106664;1278;138490;-70
2023/01/18 06:06:56;;;;;;;10.50;7.40;;;;;;;0.97;95.52;95587.13;106941;1258;139167;-70
2023/01/18 06:09:23;;;;;;;8.40;6.20;;;;;;;0.88;95.66;95586.09;106922;1273;138279;-71
2023/01/18 06:11:50;;;;;;;12.70;6.40;;;;;;;0.83;95.93;95582.61;106754;1280;25401;-70
2023/01/18 06:14:17;;;;;;;8.70;5.60;;;;;;;0.77;96.18;95579.73;106656;1279;137872;-70
2023/01/18 06:16:44;;;;;;;9.60;6.20;;;;;;;0.71;96.20;95585.98;106795;1280;137864;-70
2023/01/18 06:19:10;;;;;;;9.60;6.60;;;;;;;0.67;96.41;95586.48;106655;1263;138218;-70
2023/01/18 06:21:37;;;;;;;10.10;6.20;;;;;;;0.65;96.74;95584.43;106650;1278;138071;-70
2023/01/18 06:24:04;;;;;;;7.80;6.20;;;;;;;0.65;96.73;95582.02;106862;1277;23524;-70
2023/01/18 06:26:31;;;;;;;9.20;6.40;;;;;;;0.66;97.15;95583.80;107208;1273;138476;-72
2023/01/18 06:28:58;;;;;;;9.90;6.70;;;;;;;0.66;97.39;95586.74;107327;1260;138850;-71
2023/01/18 06:31:25;;;;;;;9.90;6.00;;;;;;;0.67;97.41;95586.86;107958;1275;137944;-71
2023/01/18 06:33:52;;;;;;;11.20;6.60;;;;;;;0.68;97.39;95575.56;108229;1275;138572;-70
2023/01/18 06:36:19;;;;;;;11.00;6.80;;;;;;;0.70;97.56;95583.98;107428;1276;22664;-70
2023/01/18 06:38:45;;;;;;;9.30;6.30;;;;;;;0.72;97.53;95594.77;107078;1263;137794;-70
2023/01/18 06:41:12;;;;;;;11.00;6.70;;;;;;;0.72;97.64;95597.83;106664;1276;137978;-72
2023/01/18 06:43:39;;;;;;;12.20;7.10;;;;;;;0.74;97.57;95610.13;107363;1273;138083;-70
2023/01/18 06:46:08;;;;;;;12.50;8.20;;;;;;;0.77;97.64;95603.23;107893;1275;138110;-71
2023/01/18 06:48:35;;;;;;;11.10;7.00;;;;;;;0.78;97.58;95600.90;107500;1262;24222;-70
2023/01/18 06:51:02;;;;;;;12.40;7.70;;;;;;;0.79;97.73;95601.91;106720;1281;24246;-70
2023/01/18 06:53:29;;;;;;;12.80;8.30;;;;;;;0.81;97.79;95609.23;106655;1281;138103;-71
2023/01/18 06:55:58;;;;;;;12.70;8.60;;;;;;;0.83;97.70;95619.89;106609;1281;138295;-70
2023/01/18 06:58:26;;;;;;;12.30;8.00;;;;;;;0.85;97.77;95612.26;108053;1262;138138;-71
2023/01/18 07:00:55;;;;;;;13.30;8.70;;;;;;;0.84;97.55;95597.51;107359;1275;138615;-71
2023/01/18 07:03:23;;;;;;;16.70;9.40;;;;;;;0.84;97.57;95609.77;107003;1273;139580;-72
2023/01/18 07:05:55;;;;;;;15.50;9.00;;;;;;;0.85;97.95;95624.16;108975;1276;22301;-72
2023/01/18 07:08:23;;;;;;;15.30;8.70;;;;;;;0.88;98.11;95619.89;107136;1260;138599;-72
2023/01/18 07:10:51;;;;;;;15.70;9.60;;;;;;;0.91;97.98;95628.07;108590;1274;138121;-72
2023/01/18 07:13:19;;;;;;;16.70;9.80;;;;;;;0.91;97.79;95637.34;106924;1279;138387;-71
2023/01/18 07:15:56;;;;;;;18.90;10.50;;;;;;;0.95;98.00;95649.33;109195;1275;138834;-73
2023/01/18 07:18:23;;;;;;;14.70;9.60;;;;;;;1.00;98.20;95647.70;107496;1257;22537;-72
2023/01/18 07:21:08;;;;;;;12.70;7.80;;;;;;;1.03;98.22;95647.96;106973;1278;138718;-72
2023/01/18 07:23:37;;;;;;;13.90;8.10;;;;;;;1.06;97.78;95648.46;106932;1281;138035;-71
2023/01/18 07:26:06;;;;;;;16.50;8.90;;;;;;;1.06;97.67;95647.45;106900;1280;138080;-70
2023/01/18 07:28:33;;;;;;;12.50;8.00;;;;;;;1.05;97.23;95651.24;107180;1260;138210;-71
2023/01/18 07:31:03;;;;;;;;;;;;;;;1.06;97.52;95651.09;106612;1272;138813;-71
2023/01/18 07:33:30;;;;;;;17.60;9.20;;;;;;;1.07;97.69;95652.27;106900;1260;124470;-72
2023/01/18 07:35:57;;;;;;;15.00;8.90;;;;;;;1.09;97.73;95647.36;106545;1277;22680;-71
2023/01/18 07:38:25;;;;;;;13.70;8.40;;;;;;;1.12;98.24;95649.81;106619;1282;138603;-71
2023/01/18 07:40:58;;;;;;;14.00;8.70;;;;;;;1.16;98.19;95643.19;106649;1260;138057;-71
2023/01/18 07:43:25;;;;;;;14.70;8.20;;;;;;;1.18;97.82;95642.94;106883;1279;138598;-71
2023/01/18 07:45:53;;;;;;;17.20;10.20;;;;;;;1.18;97.78;95644.98;106752;1279;138173;-71
2023/01/18 07:48:22;;;;;;;18.70;10.20;;;;;;;1.20;97.90;95641.98;106893;1273;22531;-72
2023/01/18 07:51:01;;;;;;;16.50;10.30;;;;;;;1.22;98.02;95643.73;106804;1273;138188;-72
2023/01/18 07:53:29;;;;;;;16.70;9.50;;;;;;;1.24;97.81;95644.23;107375;1276;138434;-72
2023/01/18 07:56:00;;;;;;;17.10;11.20;;;;;;;1.26;97.79;95642.59;106589;1279;137980;-71
2023/01/18 07:58:28;;;;;;;15.90;10.50;;;;;;;1.27;97.57;95643.17;107215;1282;138723;-70
2023/01/18 08:01:02;;;;;;;16.10;9.30;;;;;;;1.28;97.37;95647.91;107614;1262;139440;-72
2023/01/18 08:03:29;;;;;;;16.30;9.30;;;;;;;1.26;96.93;95647.50;107816;1273;138598;-73
2023/01/18 08:05:58;;;;;;;17.00;10.20;;;;;;;1.25;97.06;95653.98;107071;1273;22700;-72
2023/01/18 08:08:27;;;;;;;16.20;9.60;;;;;;;1.24;96.78;95652.86;107058;1273;137976;-71
2023/01/18 08:10:55;;;;;;;17.20;9.60;;;;;;;1.24;96.94;95650.12;106992;1263;138558;-72
2023/01/18 08:13:23;;;;;;;19.20;9.50;;;;;;;1.24;96.94;95649.52;106909;1275;138168;-70
2023/01/18 08:15:51;;;;;;;;;;;;;;;1.24;96.88;95641.59;107818;1273;138196;-71
2023/01/18 08:18:18;;;;;;;18.50;9.20;;;;;;;1.23;96.93;95632.31;107195;1269;22550;-71
2023/01/18 08:20:47;;;;;;;16.40;8.80;;;;;;;1.23;97.14;95631.14;106524;1263;138301;-71
2023/01/18 08:23:15;;;;;;;14.90;9.10;;;;;;;1.24;97.26;95622.14;106537;1280;138288;-71
2023/01/18 08:25:43;;;;;;;19.00;10.60;;;;;;;1.27;97.39;95618.52;106878;1275;138451;-72
2023/01/18 08:28:10;;;;;;;19.00;10.80;;;;;;;1.28;97.14;95627.00;107525;1273;138620;-71
2023/01/18 08:30:41;;;;;;;19.90;11.40;;;;;;;1.29;96.84;95634.29;108414;1263;139397;-73
2023/01/18 08:33:09;;;;;;;21.20;11.00;;;;;;;1.29;96.97;95642.55;106832;1275;22563;-71
2023/01/18 08:35:42;;;;;;;19.30;11.90;;;;;;;1.30;96.98;95647.23;107431;1273;137872;-71
2023/01/18 08:38:11;;;;;;;21.60;10.60;;;;;;;1.33;97.21;95657.39;107062;1276;138197;-71
2023/01/18 08:40:38;;;;;;;18.00;9.20;;;;;;;1.38;97.46;95666.11;108150;1262;138175;-71
2023/01/18 08:43:05;;;;;;;17.80;9.30;;;;;;;1.41;97.24;95668.27;108158;1272;139243;-71
2023/01/18 08:45:33;;;;;;;17.90;9.50;;;;;;;1.43;97.16;95668.52;107807;1276;138729;-71
2023/01/18 08:48:07;;;;;;;16.70;10.30;;;;;;;1.46;97.12;95665.05;106766;1281;22724;-71
2023/01/18 08:50:35;;;;;;;18.20;10.80;;;;;;;1.47;96.84;95675.62;106811;1262;137996;-71
2023/01/18 08:53:02;;;;;;;19.50;9.90;;;;;;;1.48;96.87;95680.98;106484;1281;139136;-71
2023/01/18 08:55:30;;;;;;;21.10;10.70;;;;;;;1.48;96.65;95677.73;108012;1273;138482;-71
2023/01/18 08:57:57;;;;;;;19.00;11.70;;;;;;;1.47;96.48;95678.84;107583;1276;138444;-71
2023/01/18 09:00:27;;;;;;;23.90;10.90;;;;;;;1.46;96.39;95680.44;107132;1257;25278;-71
2023/01/18 09:02:54;;;;;;;21.40;11.10;;;;;;;1.43;95.88;95681.81;108397;1278;138380;-71
2023/01/18 09:05:23;;;;;;;27.00;12.60;;;;;;;1.39;95.75;95682.80;108361;1276;138682;-71
2023/01/18 09:07:54;;;;;;;28.60;15.00;;;;;;;1.35;95.57;95674.40;108449;1273;138286;-71
2023/01/18 09:10:21;;;;;;;31.40;17.10;;;;;;;1.32;95.83;95677.86;108373;1260;138944;-71
2023/01/18 09:12:48;;;;;;;31.80;16.90;;;;;;;1.31;95.92;95683.05;106789;1270;140091;-70
2023/01/18 09:15:17;;;;;;;36.90;19.40;;;;;;;1.29;95.84;95683.95;107098;1273;22538;-72
2023/01/18 09:17:44;;;;;;;35.20;19.20;;;;;;;1.28;95.92;95688.17;107397;1269;137885;-72
2023/01/18 09:20:11;;;;;;;33.00;17.60;;;;;;;1.28;96.06;95689.02;107080;1276;140454;-72
2023/01/18 09:22:41;;;;;;;28.30;15.90;;;;;;;1.29;96.13;95688.39;107562;1263;138665;-72
2023/01/18 09:25:09;;;;;;;30.30;18.00;;;;;;;1.30;96.16;95685.02;108062;1273;138491;-73
2023/01/18 09:27:36;;;;;;;28.10;16.40;;;;;;;1.31;96.35;95682.45;107402;1273;140558;-72
2023/01/18 09:30:05;;;;;;;26.80;14.50;;;;;;;1.31;95.74;95675.00;107410;1279;22543;-72
2023/01/18 09:32:32;;;;;;;24.40;15.10;;;;;;;1.28;95.59;95669.25;108350;1262;138036;-72
2023/01/18 09:34:59;;;;;;;25.20;14.40;;;;;;;1.28;95.66;95671.55;108423;1276;138874;-69
2023/01/18 09:37:25;;;;;;;24.70;13.80;;;;;;;1.30;95.81;95680.34;107376;1273;138203;-70
2023/01/18 09:39:52;;;;;;;27.30;15.30;;;;;;;1.36;96.15;95694.98;108496;1274;139440;-69
2023/01/18 09:42:23;;;;;;;25.00;13.40;;;;;;;1.43;96.33;95705.67;107746;1263;22716;-69
2023/01/18 09:44:54;;;;;;;23.30;14.00;;;;;;;1.49;96.29;95707.92;106659;1276;138108;-69
2023/01/18 09:47:35;;;;;;;21.30;12.40;;;;;;;1.55;96.37;95705.73;106760;1273;138629;-69
2023/01/18 09:50:13;;;;;;;21.10;12.60;;;;;;;1.61;96.38;95703.14;107064;1280;138175;-69
2023/01/18 09:52:51;;;;;;;21.00;11.50;;;;;;;1.64;96.20;95707.66;106982;1263;138305;-69
2023/01/18 09:55:37;;;;;;;22.10;11.20;;;;;;;1.64;95.69;95709.94;106657;1281;138846;-69
2023/01/18 09:58:13;;;;;;;19.80;10.80;;;;;;;1.63;95.58;95720.59;106583;1276;138835;-69
2023/01/18 10:00:44;;;;;;;19.40;10.50;;;;;;;1.61;95.47;95731.58;106575;1281;138471;-69
2023/01/18 10:03:22;;;;;;;15.80;9.70;;;;;;;1.58;95.54;95741.31;107591;1280;22553;-69
2023/01/18 10:06:07;;;;;;;19.30;10.90;;;;;;;1.56;95.60;95743.39;106913;1272;24260;-71
2023/01/18 10:08:48;;;;;;;17.80;10.00;;;;;;;1.53;95.25;95749.20;108215;1258;138882;-70
2023/01/18 10:11:26;;;;;;;21.70;10.70;;;;;;;1.48;95.19;95753.39;107741;1272;139633;-71
2023/01/18 10:14:11;;;;;;;20.30;11.80;;;;;;;1.45;95.41;95747.90;108510;1264;138690;-71
2023/01/18 10:16:38;;;;;;;19.10;10.10;;;;;;;1.45;95.69;95749.56;107346;1274;139044;-71
2023/01/18 10:19:18;;;;;;;17.80;10.60;;;;;;;1.42;95.68;95746.27;106450;1275;138373;-71
2023/01/18 10:22:20;;;;;;;21.60;10.30;;;;;;;1.38;95.70;95744.67;106747;1274;138982;-72
2023/01/18 10:25:04;;;;;;;19.90;11.40;;;;;;;1.36;96.06;95736.93;106868;1272;138299;-71
2023/01/18 10:27:43;;;;;;;18.60;10.60;;;;;;;1.38;96.31;95745.95;106818;1267;139624;-71
2023/01/18 10:30:49;;;;;;;16.90;9.60;;;;;;;1.41;96.30;95754.89;107127;1279;22532;-71
2023/01/18 10:33:23;;;;;;;19.90;11.50;;;;;;;1.41;96.33;95766.15;106779;1262;22538;-71
2023/01/18 10:35:55;;;;;;;23.10;11.50;;;;;;;1.42;96.48;95764.98;106777;1276;25623;-71
2023/01/18 10:38:26;;;;;;;22.40;12.30;;;;;;;1.43;96.66;95772.66;106921;1273;138470;-71
2023/01/18 10:40:59;;;;;;;24.90;13.00;;;;;;;1.45;96.77;95771.02;107095;1276;138406;-72
2023/01/18 10:43:28;;;;;;;26.80;13.10;;;;;;;1.45;96.76;95775.95;106911;1272;138420;-70
2023/01/18 10:45:55;;;;;;;27.00;13.80;;;;;;;1.47;96.77;95783.85;106966;1279;139383;-71
2023/01/18 10:48:28;;;;;;;31.80;16.00;;;;;;;1.48;96.83;95787.09;106999;1279;23596;-71
2023/01/18 10:51:05;;;;;;;31.50;16.70;;;;;;;1.50;96.82;95790.48;106578;1274;138010;-72
2023/01/18 10:53:36;;;;;;;31.40;16.50;;;;;;;1.55;97.10;95791.51;106897;1268;138371;-71
2023/01/18 10:56:11;;;;;;;32.80;16.20;;;;;;;1.61;97.13;95798.58;106683;1266;138900;-71
2023/01/18 10:58:45;;;;;;;28.30;15.70;;;;;;;1.66;97.23;95792.94;106918;1273;138578;-71
2023/01/18 11:01:24;;;;;;;31.10;15.20;;;;;;;1.72;97.24;95795.24;107214;1275;139966;-73
2023/01/18 11:04:05;;;;;;;;;;;;;;;1.76;96.83;95797.80;107630;1263;138952;-71
2023/01/18 11:06:56;;;;;;;29.30;14.60;;;;;;;1.78;96.79;95805.92;107049;1270;24907;-72
2023/01/18 11:09:38;;;;;;;35.60;16.70;;;;;;;1.79;96.80;95808.52;106936;1267;22598;-72
2023/01/18 11:12:40;;;;;;;30.80;15.70;;;;;;;1.81;96.95;95810.84;107069;1274;22552;-72
2023/01/18 11:15:13;;;;;;;33.70;15.80;;;;;;;1.82;96.87;95813.10;106830;1270;138002;-72
2023/01/18 11:17:43;;;;;;;23.40;13.10;;;;;;;1.84;97.06;95818.48;106943;1273;138461;-72
2023/01/18 11:20:24;;;;;;;24.00;13.70;;;;;;;1.83;96.81;95825.89;106655;1269;140434;-73
2023/01/18 11:22:55;;;;;;;27.10;13.60;;;;;;;1.84;97.05;95826.36;106793;1273;138370;-72
2023/01/18 11:25:22;;;;;;;27.80;15.30;;;;;;;1.85;97.03;95830.73;106981;1263;139501;-72
2023/01/18 11:27:49;;;;;;;23.90;13.70;;;;;;;1.86;97.15;95836.42;106658;1279;138674;-72
2023/01/18 11:30:21;;;;;;;23.80;14.10;;;;;;;1.89;97.14;95835.65;106994;1270;25525;-73
2023/01/18 11:32:51;;;;;;;24.60;13.30;;;;;;;1.92;97.20;95840.34;107470;1272;138302;-72
2023/01/18 11:35:36;;;;;;;20.00;11.90;;;;;;;1.95;97.37;95843.21;107067;1263;138644;-73
2023/01/18 11:38:07;;;;;;;23.90;13.50;;;;;;;2.01;97.28;95849.06;107230;1279;138345;-72
2023/01/18 11:40:34;;;;;;;22.60;13.10;;;;;;;2.08;97.46;95856.77;106584;1274;140410;-73
2023/01/18 11:43:26;;;;;;;23.40;14.00;;;;;;;2.17;97.40;95862.57;107197;1280;138858;-73
2023/01/18 11:45:59;;;;;;;25.10;14.80;;;;;;;2.24;97.38;95866.17;108116;1264;142135;-73
2023/01/18 11:49:00;;;;;;;24.30;13.80;;;;;;;2.30;97.74;95870.61;107191;1273;25382;-73
2023/01/18 11:51:41;;;;;;;22.20;13.10;;;;;;;2.31;97.42;95874.66;107268;1274;24326;-73
2023/01/18 11:54:21;;;;;;;21.10;11.10;;;;;;;2.30;97.12;95884.96;106842;1267;22560;-73
2023/01/18 11:56:50;;;;;;;19.60;11.90;;;;;;;2.25;96.79;95891.98;106837;1276;138197;-72
2023/01/18 11:59:23;;;;;;;;;;;;;;;2.23;96.95;95889.05;106919;1275;138392;-72
2023/01/18 12:02:11;;;;;;;18.50;10.50;;;;;;;2.22;96.77;95892.10;106935;1281;125400;-73
2023/01/18 12:04:48;;;;;;;20.60;11.20;;;;;;;2.21;96.51;95894.56;107045;1260;138394;-73
2023/01/18 12:07:44;;;;;;;21.20;12.20;;;;;;;2.21;96.75;95894.89;106856;1276;139348;-72
2023/01/18 12:10:22;;;;;;;18.10;10.00;;;;;;;2.23;96.61;95899.46;107008;1276;138601;-72
2023/01/18 12:13:17;;;;;;;19.20;11.40;;;;;;;2.22;96.23;95907.77;106769;1279;22568;-73